Time;durP1;ratioP1;P1;durP2;ratioP2;P2;SDS_P1;SDS_P2;PMS_P1;PMS_P2;Temp;Humidity;BMP_temperature;BMP_pressure;BME280_temperature;BME280_humidity;BME280_pressure;Samples;Min_cycle;Max_cycle;Signal;HPM_P1;HPM_P2
2023/01/25 00:02:07;;;;;;;157.40;97.00;;;;;;;-0.88;100.00;103648.47;5053419;28;20384;-57
2023/01/25 00:04:33;;;;;;;167.02;103.65;;;;;;;-0.89;100.00;103646.66;5053243;28;20025;-57
2023/01/25 00:06:58;;;;;;;165.15;105.38;;;;;;;-0.93;100.00;103642.88;5052682;28;20099;-57
2023/01/25 00:09:24;;;;;;;166.52;104.25;;;;;;;-0.89;100.00;103644.13;5053078;28;20159;-57
2023/01/25 00:11:51;;;;;;;168.60;105.35;;;;;;;-0.91;100.00;103651.53;5052751;28;20048;-57
2023/01/25 00:14:16;;;;;;;166.73;106.32;;;;;;;-0.90;100.00;103652.47;5052797;28;20029;-57
2023/01/25 00:16:42;;;;;;;180.32;109.88;;;;;;;-0.93;100.00;103644.47;5053155;28;20044;-57
2023/01/25 00:19:09;;;;;;;176.85;108.72;;;;;;;-0.96;100.00;103647.53;5053383;28;20021;-57
2023/01/25 00:21:35;;;;;;;186.95;116.00;;;;;;;-0.99;100.00;103644.66;5052137;28;20101;-57
2023/01/25 00:24:00;;;;;;;198.93;119.18;;;;;;;-0.97;100.00;103644.84;5053271;28;20476;-57
2023/01/25 00:26:28;;;;;;;206.90;123.45;;;;;;;-1.02;100.00;103640.13;5053485;28;20029;-57
2023/01/25 00:28:54;;;;;;;197.82;118.55;;;;;;;-1.03;100.00;103638.31;5052296;28;20043;-57
2023/01/25 00:31:54;;;;;;;195.30;117.75;;;;;;;-0.98;100.00;103640.50;5053121;28;20048;-57
2023/01/25 00:34:22;;;;;;;193.00;117.38;;;;;;;-1.04;100.00;103639.03;5043223;28;20107;-57
2023/01/25 00:36:49;;;;;;;201.57;119.60;;;;;;;-1.05;100.00;103637.19;5052869;28;20033;-57
2023/01/25 00:39:14;;;;;;;209.02;125.32;;;;;;;-1.04;100.00;103633.97;5053205;28;20052;-57
2023/01/25 00:41:40;;;;;;;211.68;124.25;;;;;;;-1.05;100.00;103637.19;5052057;28;20052;-57
2023/01/25 00:44:05;;;;;;;208.95;124.35;;;;;;;-0.98;100.00;103637.97;5052994;28;20032;-57
2023/01/25 00:46:31;;;;;;;212.00;125.00;;;;;;;-1.00;100.00;103626.00;5052605;28;20029;-57
2023/01/25 00:48:56;;;;;;;207.65;125.05;;;;;;;-0.93;100.00;103626.75;5052029;28;20491;-57
2023/01/25 00:51:23;;;;;;;205.02;122.88;;;;;;;-1.00;100.00;103630.19;5052735;28;20025;-57
2023/01/25 00:53:49;;;;;;;202.73;121.03;;;;;;;-0.98;100.00;103631.28;5052664;28;20036;-57
2023/01/25 00:56:14;;;;;;;200.10;119.88;;;;;;;-0.92;100.00;103628.56;5052114;28;20100;-57
2023/01/25 00:58:40;;;;;;;201.88;118.85;;;;;;;-0.90;100.00;103632.22;5052499;28;20079;-57
2023/01/25 01:01:06;;;;;;;196.25;119.18;;;;;;;-0.95;100.00;103624.06;5052590;28;20495;-57
2023/01/25 01:03:31;;;;;;;192.13;113.85;;;;;;;-0.96;100.00;103627.28;5051557;28;20107;-57
2023/01/25 01:06:01;;;;;;;193.13;118.63;;;;;;;-0.90;100.00;103622.97;5052553;28;20025;-57
2023/01/25 01:08:26;;;;;;;216.02;124.55;;;;;;;-0.95;100.00;103618.09;5052548;28;20484;-57
2023/01/25 01:10:57;;;;;;;216.48;126.93;;;;;;;-0.94;100.00;103614.81;5051593;28;20080;-57
2023/01/25 01:13:23;;;;;;;227.18;130.38;;;;;;;-0.96;100.00;103621.34;5052592;28;20384;-57
2023/01/25 01:15:48;;;;;;;218.05;127.43;;;;;;;-1.00;100.00;103615.00;5052210;28;20465;-57
2023/01/25 01:18:13;;;;;;;226.40;129.55;;;;;;;-1.02;100.00;103613.88;5051656;28;20032;-57
2023/01/25 01:20:38;;;;;;;218.75;127.50;;;;;;;-1.01;100.00;103616.63;5052445;28;20036;-57
2023/01/25 01:23:04;;;;;;;232.43;132.15;;;;;;;-1.03;100.00;103625.66;5052532;28;20025;-57
2023/01/25 01:25:29;;;;;;;237.00;138.52;;;;;;;-1.04;100.00;103613.72;5055376;28;20041;-57
2023/01/25 01:27:54;;;;;;;243.60;139.32;;;;;;;-1.03;100.00;103615.53;5056253;28;20067;-57
2023/01/25 01:30:19;;;;;;;232.95;132.80;;;;;;;-1.07;100.00;103622.53;5055667;28;20039;-57
2023/01/25 01:32:45;;;;;;;225.43;128.30;;;;;;;-1.09;100.00;103614.78;5056022;28;20021;-57
2023/01/25 01:35:10;;;;;;;234.02;132.05;;;;;;;-1.13;100.00;103615.13;5056265;28;20025;-57
2023/01/25 01:37:35;;;;;;;231.60;132.40;;;;;;;-1.15;100.00;103614.03;5055367;28;20039;-57
2023/01/25 01:40:00;;;;;;;241.60;135.40;;;;;;;-1.10;100.00;103617.13;5056293;28;20037;-57
2023/01/25 01:42:26;;;;;;;250.50;143.00;;;;;;;-1.13;100.00;103612.59;5056268;28;20024;-57
2023/01/25 01:44:53;;;;;;;239.20;134.60;;;;;;;-1.20;100.00;103610.94;5055082;28;20029;-57
2023/01/25 01:47:28;;;;;;;249.47;141.57;;;;;;;-1.14;100.00;103620.91;5056083;28;20025;-57
2023/01/25 01:50:03;;;;;;;240.98;133.98;;;;;;;-1.15;100.00;103619.09;5055964;28;20638;-58
2023/01/25 01:52:36;;;;;;;169.95;48.97;;;;;;;-1.02;100.00;103622.41;5055076;28;20075;-57
2023/01/25 01:55:04;;;;;;;245.57;137.10;;;;;;;-1.13;100.00;103619.28;5056024;28;20067;-57
2023/01/25 01:57:40;;;;;;;;;;;;;;;-0.98;100.00;103615.16;5056165;28;20048;-57
2023/01/25 02:00:27;;;;;;;254.73;138.77;;;;;;;-1.10;100.00;103623.09;5055012;28;20346;-57
2023/01/25 02:02:54;;;;;;;264.63;144.35;;;;;;;-1.18;100.00;103611.13;5056031;28;20031;-57
2023/01/25 02:05:49;;;;;;;260.95;142.10;;;;;;;-1.14;100.00;103623.44;5055431;28;20028;-57
2023/01/25 02:08:15;;;;;;;246.05;136.65;;;;;;;-1.17;100.00;103610.41;5055817;28;20043;-57
2023/01/25 02:10:43;;;;;;;248.43;135.75;;;;;;;-1.17;100.00;103615.47;5055188;28;20045;-57
2023/01/25 02:13:08;;;;;;;248.52;137.85;;;;;;;-1.13;100.00;103614.25;5055053;28;20032;-57
2023/01/25 02:15:46;;;;;;;238.02;134.82;;;;;;;-1.19;100.00;103611.84;5055465;28;20029;-57
2023/01/25 02:18:12;;;;;;;;;;;;;;;-1.04;100.00;103612.81;5056037;28;20037;-57
2023/01/25 02:20:38;;;;;;;247.57;136.55;;;;;;;-1.25;100.00;103606.97;5054434;28;19922;-57
2023/01/25 02:23:19;;;;;;;251.80;139.60;;;;;;;-1.27;100.00;103604.97;5055364;28;20368;-57
2023/01/25 02:25:45;;;;;;;279.20;159.18;;;;;;;-1.26;100.00;103600.06;5055148;28;20021;-57
2023/01/25 02:28:17;;;;;;;252.13;138.80;;;;;;;-1.27;100.00;103597.38;5054526;28;20048;-57
2023/01/25 02:30:42;;;;;;;255.77;141.43;;;;;;;-1.22;100.00;103597.19;5055205;28;20048;-57
2023/01/25 02:33:08;;;;;;;257.00;139.93;;;;;;;-1.24;100.00;103593.59;5055114;28;20396;-57
2023/01/25 02:35:50;;;;;;;269.25;145.55;;;;;;;-1.26;100.00;103589.97;5053684;28;20033;-57
2023/01/25 02:38:18;;;;;;;265.98;143.13;;;;;;;-1.34;100.00;103591.56;5055122;28;20503;-57
2023/01/25 02:40:58;;;;;;;;;;;;;;;-1.22;100.00;103596.31;5054444;28;20472;-57
2023/01/25 02:43:27;;;;;;;288.35;151.15;;;;;;;-1.37;100.00;103588.66;5054922;28;19954;-57
2023/01/25 02:45:59;;;;;;;275.10;148.25;;;;;;;-1.31;100.00;103582.53;5056195;28;20373;-57
2023/01/25 02:48:24;;;;;;;282.25;151.50;;;;;;;-1.32;100.00;103579.09;5054414;28;20035;-57
2023/01/25 02:50:50;;;;;;;278.33;151.18;;;;;;;-1.32;100.00;103579.09;5054596;28;20029;-57
2023/01/25 02:53:15;;;;;;;285.50;149.07;;;;;;;-1.33;100.00;103580.72;5054831;28;20070;-57
2023/01/25 02:55:40;;;;;;;281.00;150.88;;;;;;;-1.34;100.00;103573.84;5053870;28;20076;-57
2023/01/25 02:58:06;;;;;;;281.52;149.18;;;;;;;-1.36;100.00;103580.31;5054760;28;20056;-57
2023/01/25 03:00:31;;;;;;;283.75;151.60;;;;;;;-1.35;100.00;103578.72;5054306;28;20472;-57
2023/01/25 03:02:57;;;;;;;282.13;150.93;;;;;;;-1.34;100.00;103576.38;5054081;28;20484;-57
2023/01/25 03:05:22;;;;;;;290.63;154.43;;;;;;;-1.31;100.00;103577.47;5054650;28;20055;-57
2023/01/25 03:07:47;;;;;;;278.70;150.07;;;;;;;-1.32;100.00;103574.03;5054437;28;20031;-57
2023/01/25 03:10:13;;;;;;;269.25;144.38;;;;;;;-1.31;100.00;103577.47;5053541;28;20485;-57
2023/01/25 03:12:38;;;;;;;266.48;144.10;;;;;;;-1.29;100.00;103574.41;5054189;28;20032;-57
2023/01/25 03:15:04;;;;;;;275.10;146.65;;;;;;;-1.31;100.00;103575.84;5054666;28;20021;-57
2023/01/25 03:17:30;;;;;;;277.88;147.60;;;;;;;-1.30;100.00;103566.63;5053480;28;20033;-57
2023/01/25 03:19:55;;;;;;;270.88;146.20;;;;;;;-1.30;100.00;103570.06;5054521;28;20063;-57
2023/01/25 03:22:20;;;;;;;273.33;146.98;;;;;;;-1.29;100.00;103559.22;5054432;28;20028;-57
2023/01/25 03:24:46;;;;;;;280.60;147.73;;;;;;;-1.23;100.00;103566.66;5053354;28;20020;-57
2023/01/25 03:27:12;;;;;;;277.95;145.45;;;;;;;-1.26;100.00;103558.69;5054330;28;20025;-57
2023/01/25 03:29:39;;;;;;;284.13;151.77;;;;;;;-1.26;100.00;103553.63;5053940;28;20112;-57
2023/01/25 03:32:04;;;;;;;294.95;153.75;;;;;;;-1.31;100.00;103550.53;5053607;28;20028;-57
2023/01/25 03:34:29;;;;;;;290.92;156.40;;;;;;;-1.27;100.00;103546.75;5053754;28;20029;-57
2023/01/25 03:36:55;;;;;;;290.67;152.68;;;;;;;-1.30;100.00;103538.78;5053237;28;20590;-57
2023/01/25 03:39:20;;;;;;;300.17;153.55;;;;;;;-1.33;100.00;103536.78;5054219;28;20029;-57
2023/01/25 03:41:45;;;;;;;292.00;150.60;;;;;;;-1.33;100.00;103535.19;5053639;28;20017;-57
2023/01/25 03:44:11;;;;;;;287.15;150.93;;;;;;;-1.36;100.00;103532.25;5053074;28;20028;-57
2023/01/25 03:46:37;;;;;;;287.60;152.73;;;;;;;-1.38;100.00;103538.78;5053014;28;20098;-57
2023/01/25 03:49:02;;;;;;;296.40;151.98;;;;;;;-1.36;100.00;103542.38;5053842;28;20029;-57
2023/01/25 03:51:28;;;;;;;296.95;155.30;;;;;;;-1.37;100.00;103530.47;5052697;28;20047;-57
2023/01/25 03:53:53;;;;;;;296.88;155.60;;;;;;;-1.37;100.00;103535.53;5053593;28;20036;-57
2023/01/25 03:56:19;;;;;;;298.95;156.93;;;;;;;-1.39;100.00;103531.91;5053639;28;20029;-57
2023/01/25 03:58:45;;;;;;;298.88;154.95;;;;;;;-1.41;100.00;103538.38;5052512;28;20025;-57
2023/01/25 04:01:11;;;;;;;301.50;154.27;;;;;;;-1.34;100.00;103535.00;5053474;28;20476;-57
2023/01/25 04:03:36;;;;;;;306.80;156.20;;;;;;;-1.34;100.00;103537.53;5053397;28;20048;-57
2023/01/25 04:06:03;;;;;;;209.90;54.33;;;;;;;-1.23;100.00;103536.28;5052676;28;20029;-57
2023/01/25 04:08:29;;;;;;;287.20;149.40;;;;;;;-1.35;100.00;103533.19;5053082;28;20033;-57
2023/01/25 04:11:00;;;;;;;304.23;157.00;;;;;;;-1.30;100.00;103534.66;5053051;28;20388;-57
2023/01/25 04:13:26;;;;;;;296.20;153.48;;;;;;;-1.29;100.00;103535.53;5052844;28;20021;-57
2023/01/25 04:15:52;;;;;;;290.52;150.20;;;;;;;-1.34;100.00;103535.88;5053128;28;20032;-57
2023/01/25 04:18:18;;;;;;;295.27;151.95;;;;;;;-1.32;100.00;103531.00;5053363;28;20534;-57
2023/01/25 04:20:43;;;;;;;293.67;153.25;;;;;;;-1.36;100.00;103519.59;5052310;28;20017;-57
2023/01/25 04:23:09;;;;;;;304.20;154.48;;;;;;;-1.41;100.00;103523.22;5053205;28;20025;-57
2023/01/25 04:25:35;;;;;;;299.05;154.43;;;;;;;-1.38;100.00;103518.53;5052764;28;20017;-57
2023/01/25 04:28:01;;;;;;;301.08;156.77;;;;;;;-1.43;100.00;103511.09;5052297;28;20058;-57
2023/01/25 04:30:27;;;;;;;296.38;153.23;;;;;;;-1.48;100.00;103518.13;5053007;28;20112;-57
2023/01/25 04:32:52;;;;;;;298.98;152.52;;;;;;;-1.51;100.00;103512.69;5053013;28;20068;-57
2023/01/25 04:35:19;;;;;;;301.05;153.75;;;;;;;-1.53;100.00;103516.69;5052255;28;20108;-57
2023/01/25 04:37:58;;;;;;;295.43;154.73;;;;;;;-1.50;100.00;103517.03;5052764;28;20028;-57
2023/01/25 04:40:24;;;;;;;308.10;157.30;;;;;;;-1.53;100.00;103516.69;5052413;28;20347;-57
2023/01/25 04:42:49;;;;;;;300.15;152.52;;;;;;;-1.60;100.00;103509.97;5052557;28;20483;-57
2023/01/25 04:45:14;;;;;;;205.70;53.47;;;;;;;-1.48;100.00;103515.63;5053081;28;20031;-57
2023/01/25 04:47:40;;;;;;;298.23;151.85;;;;;;;-1.61;100.00;103509.75;5051786;28;20076;-57
2023/01/25 04:50:05;;;;;;;302.42;156.38;;;;;;;-1.63;100.00;103498.56;5052776;28;20037;-57
2023/01/25 04:52:31;;;;;;;295.35;151.15;;;;;;;-1.64;100.00;103502.72;5052392;28;20438;-57
2023/01/25 04:54:56;;;;;;;306.83;155.70;;;;;;;-1.54;100.00;103504.75;5051902;28;20031;-57
2023/01/25 04:57:21;;;;;;;298.20;152.98;;;;;;;-1.58;100.00;103498.41;5052812;28;20025;-57
2023/01/25 04:59:47;;;;;;;302.00;152.93;;;;;;;-1.53;100.00;103501.50;5052366;28;20048;-57
2023/01/25 05:02:12;;;;;;;301.92;154.13;;;;;;;-1.43;100.00;103499.38;5051975;28;20116;-57
2023/01/25 05:04:37;;;;;;;299.27;152.68;;;;;;;-1.48;100.00;103505.50;5052338;28;20033;-57
2023/01/25 05:07:03;;;;;;;304.85;155.70;;;;;;;-1.42;100.00;103496.13;5052715;28;20055;-57
2023/01/25 05:09:28;;;;;;;301.30;150.80;;;;;;;-1.44;100.00;103492.50;5051238;28;20060;-57
2023/01/25 05:11:53;;;;;;;303.70;151.75;;;;;;;-1.44;100.00;103487.44;5052600;28;20045;-57
2023/01/25 05:14:18;;;;;;;302.90;152.95;;;;;;;-1.43;100.00;103484.19;5053197;28;20060;-57
2023/01/25 05:16:44;;;;;;;199.75;51.00;;;;;;;-1.28;100.00;103486.75;5051630;28;20112;-57
2023/01/25 05:19:09;;;;;;;299.20;151.40;;;;;;;-1.40;100.00;103488.72;5052697;28;20029;-57
2023/01/25 05:24:18;;;;;;;303.50;153.13;;;;;;;-1.43;100.00;103474.06;5051837;28;20027;-57
2023/01/25 05:29:34;;;;;;;305.67;154.30;;;;;;;-1.48;100.00;103480.19;5052048;28;20554;-57
2023/01/25 05:32:00;;;;;;;300.00;151.50;;;;;;;-1.43;100.00;103473.16;5052539;28;20100;-57
2023/01/25 05:34:25;;;;;;;299.67;152.35;;;;;;;-1.42;100.00;103477.50;5052329;28;20036;-57
2023/01/25 05:36:51;;;;;;;314.35;157.43;;;;;;;-1.40;100.00;103474.44;5051219;28;20427;-57
2023/01/25 05:39:16;;;;;;;311.85;157.32;;;;;;;-1.45;100.00;103475.50;5052519;28;20029;-57
2023/01/25 05:41:41;;;;;;;311.48;156.77;;;;;;;-1.42;100.00;103473.34;5052216;28;20564;-57
2023/01/25 05:44:07;;;;;;;319.60;163.20;;;;;;;-1.43;100.00;103473.16;5051708;28;20563;-57
2023/01/25 05:46:32;;;;;;;314.45;155.55;;;;;;;-1.46;100.00;103477.84;5052073;28;20033;-57
2023/01/25 05:48:57;;;;;;;305.05;153.07;;;;;;;-1.51;100.00;103469.69;5052172;28;20032;-57
2023/01/25 05:51:23;;;;;;;307.13;153.27;;;;;;;-1.52;100.00;103470.44;5051692;28;20031;-57
2023/01/25 05:53:48;;;;;;;302.10;154.02;;;;;;;-1.50;100.00;103471.50;5051817;28;20017;-57
2023/01/25 05:56:13;;;;;;;292.73;148.32;;;;;;;-1.56;100.00;103470.75;5052340;28;20060;-57
2023/01/25 05:58:38;;;;;;;293.75;147.77;;;;;;;-1.57;100.00;103468.97;5051244;28;20029;-57
2023/01/25 06:01:06;;;;;;;305.15;150.73;;;;;;;-1.58;100.00;103468.06;5051999;28;20033;-57
2023/01/25 06:03:32;;;;;;;213.68;51.83;;;;;;;-1.45;100.00;103472.97;5051768;28;20037;-57
2023/01/25 06:06:02;;;;;;;296.23;147.15;;;;;;;-1.58;100.00;103473.09;5051554;28;20021;-57
2023/01/25 06:08:29;;;;;;;298.88;151.10;;;;;;;-1.63;100.00;103471.66;5051845;28;20029;-57
2023/01/25 06:10:54;;;;;;;295.10;149.30;;;;;;;-1.71;100.00;103473.25;5054711;28;20049;-57
2023/01/25 06:13:21;;;;;;;298.38;147.60;;;;;;;-1.71;100.00;103475.78;5055048;28;20100;-57
2023/01/25 06:15:56;;;;;;;309.70;153.10;;;;;;;-1.70;100.00;103472.53;5055361;28;20036;-57
2023/01/25 06:18:23;;;;;;;298.98;148.73;;;;;;;-1.73;100.00;103487.34;5055431;28;20481;-57
2023/01/25 06:20:49;;;;;;;295.92;150.38;;;;;;;-1.71;100.00;103478.31;5054666;28;20021;-57
2023/01/25 06:23:14;;;;;;;292.23;150.55;;;;;;;-1.74;100.00;103471.97;5055584;28;20366;-57
2023/01/25 06:25:39;;;;;;;192.73;51.08;;;;;;;-1.64;100.00;103477.41;5054474;28;20025;-57
2023/01/25 06:28:05;;;;;;;295.45;146.65;;;;;;;-1.74;100.00;103479.53;5055209;28;20029;-57
2023/01/25 06:30:30;;;;;;;291.98;144.50;;;;;;;-1.75;100.00;103476.13;5054925;28;20088;-57
2023/01/25 06:32:59;;;;;;;293.48;145.93;;;;;;;-1.79;100.00;103476.47;5054712;28;20496;-57
2023/01/25 06:35:24;;;;;;;287.52;142.60;;;;;;;-1.79;100.00;103468.91;5055396;28;20032;-57
2023/01/25 06:37:49;;;;;;;284.55;139.68;;;;;;;-1.80;100.00;103468.72;5054896;28;20025;-57
2023/01/25 06:40:15;;;;;;;282.48;142.10;;;;;;;-1.78;100.00;103473.25;5054494;28;20100;-57
2023/01/25 06:42:40;;;;;;;193.43;47.92;;;;;;;-1.63;100.00;103470.75;5055032;28;20025;-57
2023/01/25 06:45:06;;;;;;;283.70;143.02;;;;;;;-1.74;100.00;103474.50;5055166;28;20420;-57
2023/01/25 06:47:32;;;;;;;283.35;139.35;;;;;;;-1.78;100.00;103470.72;5054036;28;20560;-57
2023/01/25 06:49:57;;;;;;;273.65;142.50;;;;;;;-1.80;100.00;103477.19;5055087;28;20028;-57
2023/01/25 06:52:22;;;;;;;284.30;141.63;;;;;;;-1.83;100.00;103470.13;5054860;28;20029;-57
2023/01/25 06:54:47;;;;;;;277.13;142.73;;;;;;;-1.85;100.00;103471.59;5053884;28;20074;-57
2023/01/25 06:57:13;;;;;;;278.40;141.02;;;;;;;-1.88;100.00;103465.25;5054924;28;20037;-57
2023/01/25 06:59:38;;;;;;;286.25;142.18;;;;;;;-1.88;100.00;103465.25;5054495;28;20492;-57
2023/01/25 07:02:04;;;;;;;274.35;139.05;;;;;;;-1.86;100.00;103472.31;5053937;28;20037;-57
2023/01/25 07:04:29;;;;;;;291.70;145.00;;;;;;;-1.83;100.00;103461.66;5054312;28;20468;-57
2023/01/25 07:06:54;;;;;;;294.00;144.55;;;;;;;-1.83;100.00;103462.56;5054504;28;20494;-57
2023/01/25 07:09:23;;;;;;;280.88;140.65;;;;;;;-1.82;100.00;103466.91;5053942;28;20021;-57
2023/01/25 07:11:51;;;;;;;275.50;136.18;;;;;;;-1.79;100.00;103466.38;5054079;28;20036;-57
2023/01/25 07:14:16;;;;;;;276.15;137.68;;;;;;;-1.77;100.00;103464.03;5054408;28;20476;-57
2023/01/25 07:16:42;;;;;;;284.38;144.10;;;;;;;-1.79;100.00;103466.38;5053344;28;20104;-57
2023/01/25 07:19:10;;;;;;;275.05;139.00;;;;;;;-1.79;100.00;103470.53;5054501;28;20491;-57
2023/01/25 07:21:35;;;;;;;282.13;139.70;;;;;;;-1.86;100.00;103474.84;5052859;28;20036;-57
2023/01/25 07:24:03;;;;;;;266.00;135.82;;;;;;;-1.90;100.00;103480.25;5053537;28;20021;-57
2023/01/25 07:26:29;;;;;;;;;;;;;;;-1.75;100.00;103472.72;5054436;28;20028;-57
2023/01/25 07:28:57;;;;;;;281.42;141.82;;;;;;;-1.99;100.00;103472.44;5053362;28;19913;-57
2023/01/25 07:31:22;;;;;;;;;;;;;;;-1.87;100.00;103467.06;5054493;28;20393;-57
2023/01/25 07:33:53;;;;;;;283.05;139.52;;;;;;;-2.02;100.00;103466.97;5053883;28;19913;-57
2023/01/25 07:36:19;;;;;;;283.98;140.70;;;;;;;-2.02;100.00;103464.44;5053424;28;20028;-57
2023/01/25 07:38:45;;;;;;;284.17;141.82;;;;;;;-2.03;100.00;103456.69;5053594;28;20443;-57
2023/01/25 07:41:11;;;;;;;294.25;142.63;;;;;;;-1.96;100.00;103456.72;5053846;28;20485;-57
2023/01/25 07:43:37;;;;;;;291.88;145.20;;;;;;;-1.99;100.00;103454.72;5052712;28;20068;-57
2023/01/25 07:46:06;;;;;;;286.58;142.88;;;;;;;-1.95;100.00;103453.50;5054255;28;20116;-57
2023/01/25 07:48:32;;;;;;;295.70;144.82;;;;;;;-1.96;100.00;103455.81;5053463;28;20475;-57
2023/01/25 07:51:11;;;;;;;277.50;138.77;;;;;;;-2.01;100.00;103451.09;5053116;28;20067;-57
2023/01/25 07:53:40;;;;;;;273.95;139.48;;;;;;;-2.05;100.00;103451.44;5053712;28;20086;-57
2023/01/25 07:56:07;;;;;;;184.70;49.42;;;;;;;-1.91;100.00;103454.75;5053635;28;20033;-57
2023/01/25 07:58:32;;;;;;;288.33;142.35;;;;;;;-2.05;100.00;103453.97;5052703;28;20052;-57
2023/01/25 08:01:24;;;;;;;281.08;141.10;;;;;;;-2.09;100.00;103459.38;5053726;28;20049;-57
2023/01/25 08:03:51;;;;;;;280.88;136.57;;;;;;;-2.07;100.00;103460.44;5052957;28;20041;-57
2023/01/25 08:06:17;;;;;;;284.00;138.50;;;;;;;-2.04;100.00;103455.78;5052720;28;20028;-57
2023/01/25 08:08:46;;;;;;;277.45;138.77;;;;;;;-2.02;100.00;103446.75;5052876;28;20519;-57
2023/01/25 08:11:21;;;;;;;276.55;135.23;;;;;;;-2.02;100.00;103445.88;5052488;28;20091;-57
2023/01/25 08:13:48;;;;;;;283.58;137.52;;;;;;;-2.01;100.00;103437.56;5053258;28;20028;-57
2023/01/25 08:16:16;;;;;;;283.25;139.25;;;;;;;-1.97;100.00;103444.81;5053530;28;20082;-57
2023/01/25 08:18:42;;;;;;;284.50;139.57;;;;;;;-1.89;100.00;103439.06;5052220;28;20025;-56
2023/01/25 08:21:08;;;;;;;286.48;139.02;;;;;;;-1.93;100.00;103452.03;5053162;28;20548;-55
2023/01/25 08:23:33;;;;;;;272.75;138.30;;;;;;;-1.94;100.00;103444.28;5053032;28;20032;-56
2023/01/25 08:26:07;;;;;;;283.13;137.80;;;;;;;-1.95;100.00;103439.94;5052460;28;20029;-56
2023/01/25 08:28:32;;;;;;;286.83;138.48;;;;;;;-1.94;100.00;103434.16;5052751;28;20040;-56
2023/01/25 08:31:14;;;;;;;284.42;138.18;;;;;;;-1.93;100.00;103431.81;5053073;28;20028;-56
2023/01/25 08:33:41;;;;;;;281.05;138.18;;;;;;;-1.96;100.00;103435.59;5051848;28;20036;-56
2023/01/25 08:36:09;;;;;;;273.33;135.02;;;;;;;-2.02;100.00;103431.59;5052951;28;20377;-56
2023/01/25 08:38:34;;;;;;;295.48;138.77;;;;;;;-2.03;100.00;103433.94;5052853;28;20036;-57
2023/01/25 08:41:07;;;;;;;292.20;139.85;;;;;;;-2.00;100.00;103430.16;5052318;28;20052;-56
2023/01/25 08:43:33;;;;;;;190.43;48.25;;;;;;;-1.86;100.00;103433.47;5052841;28;20070;-56
2023/01/25 08:45:58;;;;;;;285.45;141.18;;;;;;;-1.88;100.00;103434.91;5052778;28;20428;-56
2023/01/25 08:48:24;;;;;;;282.83;139.75;;;;;;;-1.89;100.00;103433.09;5052131;28;20052;-56
2023/01/25 08:50:49;;;;;;;293.85;143.45;;;;;;;-1.84;100.00;103434.56;5052355;28;20028;-56
2023/01/25 08:53:14;;;;;;;304.60;147.20;;;;;;;-1.81;100.00;103432.41;5052501;28;20029;-56
2023/01/25 08:55:41;;;;;;;296.27;144.23;;;;;;;-1.83;100.00;103433.84;5052069;28;20033;-57
2023/01/25 08:58:10;;;;;;;208.55;50.72;;;;;;;-1.73;100.00;103431.72;5052688;28;20136;-57
2023/01/25 09:00:37;;;;;;;191.32;51.03;;;;;;;-1.76;100.00;103425.38;5051521;28;20076;-57
2023/01/25 09:03:02;;;;;;;292.50;141.77;;;;;;;-1.86;100.00;103414.16;5052857;28;20028;-57
2023/01/25 09:05:28;;;;;;;296.23;142.88;;;;;;;-1.81;100.00;103412.19;5052462;28;20358;-57
2023/01/25 09:07:53;;;;;;;295.40;143.75;;;;;;;-1.78;100.00;103406.59;5051980;28;20037;-57
2023/01/25 09:10:18;;;;;;;290.38;142.55;;;;;;;-1.80;100.00;103408.03;5052534;28;20112;-57
2023/01/25 09:12:44;;;;;;;291.50;142.13;;;;;;;-1.74;100.00;103409.69;5052374;28;20435;-57
2023/01/25 09:15:09;;;;;;;202.32;49.20;;;;;;;-1.59;100.00;103414.75;5051711;28;20029;-57
2023/01/25 09:17:37;;;;;;;288.40;140.07;;;;;;;-1.69;100.00;103411.13;5052382;28;20362;-57
2023/01/25 09:20:06;;;;;;;289.13;142.70;;;;;;;-1.64;100.00;103410.78;5052638;28;20036;-57
2023/01/25 09:22:31;;;;;;;282.10;140.88;;;;;;;-1.56;100.00;103405.00;5051443;28;20025;-57
2023/01/25 09:24:57;;;;;;;297.38;146.82;;;;;;;-1.55;100.00;103402.69;5052473;28;20036;-57
2023/01/25 09:27:22;;;;;;;290.38;142.35;;;;;;;-1.54;100.00;103401.06;5052474;28;20388;-57
2023/01/25 09:29:47;;;;;;;290.38;142.20;;;;;;;-1.46;100.00;103407.91;5051323;28;20067;-57
2023/01/25 09:32:13;;;;;;;290.90;140.70;;;;;;;-1.52;100.00;103408.09;5052264;28;20101;-56
2023/01/25 09:34:38;;;;;;;285.85;140.55;;;;;;;-1.53;100.00;103405.41;5052265;28;20159;-57
2023/01/25 09:37:03;;;;;;;297.02;145.35;;;;;;;-1.46;100.00;103404.50;5051769;28;20021;-57
2023/01/25 09:39:28;;;;;;;297.02;142.70;;;;;;;-1.41;100.00;103411.91;5052026;28;20465;-57
2023/01/25 09:42:06;;;;;;;291.05;142.13;;;;;;;-1.39;100.00;103410.47;5052336;28;20023;-57
2023/01/25 09:44:57;;;;;;;294.02;141.80;;;;;;;-1.35;100.00;103406.69;5052116;28;20021;-57
2023/01/25 09:47:32;;;;;;;286.88;139.68;;;;;;;-1.42;100.00;103400.00;5056151;28;20029;-57
2023/01/25 09:50:28;;;;;;;291.33;140.45;;;;;;;-1.44;100.00;103406.50;5055367;28;20357;-57
2023/01/25 09:53:12;;;;;;;293.80;142.65;;;;;;;-1.41;100.00;103404.31;5056056;28;20376;-57
2023/01/25 09:55:38;;;;;;;288.00;140.43;;;;;;;-1.39;100.00;103397.81;5055744;28;20480;-57
2023/01/25 09:58:04;;;;;;;286.77;140.00;;;;;;;-1.39;100.00;103399.47;5055358;28;20029;-57
2023/01/25 10:00:34;;;;;;;284.10;134.88;;;;;;;-1.46;100.00;103402.84;5055654;28;20354;-57
2023/01/25 10:03:23;;;;;;;279.83;136.77;;;;;;;-1.53;100.00;103402.88;5055758;28;20055;-57
2023/01/25 10:05:50;;;;;;;283.63;135.88;;;;;;;-1.52;100.00;103408.09;5043557;28;20033;-57
2023/01/25 10:08:26;;;;;;;280.90;135.52;;;;;;;-1.54;100.00;103401.06;5055774;28;20033;-57
2023/01/25 10:10:58;;;;;;;288.38;138.35;;;;;;;-1.50;100.00;103395.63;5054431;28;20041;-57
2023/01/25 10:13:30;;;;;;;272.67;131.45;;;;;;;-1.51;100.00;103392.22;5055635;28;20082;-57
2023/01/25 10:16:01;;;;;;;276.95;131.13;;;;;;;-1.55;100.00;103394.19;5055811;28;20037;-57
2023/01/25 10:18:44;;;;;;;273.25;134.65;;;;;;;-1.50;100.00;103381.38;5054875;28;20021;-57
2023/01/25 10:21:16;;;;;;;273.42;133.93;;;;;;;-1.54;100.00;103388.41;5055717;28;20055;-57
2023/01/25 10:24:10;;;;;;;280.52;134.57;;;;;;;-1.55;100.00;103390.03;5055267;28;20358;-57
2023/01/25 10:26:37;;;;;;;197.48;46.13;;;;;;;-1.36;100.00;103388.06;5054516;28;20021;-57
2023/01/25 10:29:18;;;;;;;290.80;142.70;;;;;;;-1.55;100.00;103382.47;5055495;28;20377;-57
2023/01/25 10:31:50;;;;;;;324.10;165.55;;;;;;;-1.66;100.00;103383.69;5054695;28;20025;-57
2023/01/25 10:34:37;;;;;;;275.77;134.93;;;;;;;-1.47;100.00;103380.84;5055335;28;20108;-57
2023/01/25 10:37:11;;;;;;;183.00;47.20;;;;;;;-1.35;100.00;103373.81;5055376;28;20075;-57
2023/01/25 10:39:44;;;;;;;272.58;133.18;;;;;;;-1.51;100.00;103363.47;5054177;28;20078;-57
2023/01/25 10:42:14;;;;;;;276.83;133.82;;;;;;;-1.61;100.00;103360.56;5055135;28;20029;-57
2023/01/25 10:44:39;;;;;;;278.10;135.95;;;;;;;-1.47;100.00;103350.50;5054729;28;20025;-57
2023/01/25 10:47:28;;;;;;;274.42;133.73;;;;;;;-1.36;100.00;103342.50;5054355;28;20063;-57
2023/01/25 10:49:55;;;;;;;262.60;127.00;;;;;;;-1.36;100.00;103334.94;5054935;28;20519;-57
2023/01/25 10:52:27;;;;;;;265.40;129.40;;;;;;;-1.37;100.00;103329.69;5055113;28;20100;-56
2023/01/25 10:55:18;;;;;;;282.23;136.63;;;;;;;-1.31;100.00;103329.53;5053782;28;20028;-56
2023/01/25 10:57:46;;;;;;;281.90;135.73;;;;;;;-1.40;100.00;103320.13;5054619;28;20025;-56
2023/01/25 11:00:37;;;;;;;286.13;136.10;;;;;;;-1.26;100.00;103310.72;5054204;28;20021;-56